sensor_id;sensor_type;location;lat;lon;timestamp;P1;durP1;ratioP1;P2;durP2;ratioP2
3627;SDS011;1830;49.000;12.074;2023-04-23T00:01:04;6.80;;;5.83;;
3627;SDS011;1830;49.000;12.074;2023-04-23T00:03:32;7.33;;;5.80;;
3627;SDS011;1830;49.000;12.074;2023-04-23T00:06:01;7.90;;;6.23;;
3627;SDS011;1830;49.000;12.074;2023-04-23T00:08:33;10.47;;;5.60;;
3627;SDS011;1830;49.000;12.074;2023-04-23T00:11:01;6.10;;;5.00;;
3627;SDS011;1830;49.000;12.074;2023-04-23T00:13:28;6.17;;;5.23;;
3627;SDS011;1830;49.000;12.074;2023-04-23T00:15:56;6.77;;;4.57;;
3627;SDS011;1830;49.000;12.074;2023-04-23T00:18:23;4.73;;;4.43;;
3627;SDS011;1830;49.000;12.074;2023-04-23T00:20:49;5.07;;;4.63;;
3627;SDS011;1830;49.000;12.074;2023-04-23T00:23:16;5.00;;;4.60;;
3627;SDS011;1830;49.000;12.074;2023-04-23T00:25:43;5.00;;;4.60;;
3627;SDS011;1830;49.000;12.074;2023-04-23T00:28:11;7.70;;;4.83;;
3627;SDS011;1830;49.000;12.074;2023-04-23T00:30:38;6.33;;;5.07;;
3627;SDS011;1830;49.000;12.074;2023-04-23T00:33:05;7.90;;;5.17;;
3627;SDS011;1830;49.000;12.074;2023-04-23T00:35:32;9.17;;;5.50;;
3627;SDS011;1830;49.000;12.074;2023-04-23T00:37:59;9.60;;;5.20;;
3627;SDS011;1830;49.000;12.074;2023-04-23T00:40:25;5.53;;;5.07;;
3627;SDS011;1830;49.000;12.074;2023-04-23T00:42:52;6.13;;;5.60;;
3627;SDS011;1830;49.000;12.074;2023-04-23T00:45:23;5.57;;;5.17;;
3627;SDS011;1830;49.000;12.074;2023-04-23T00:47:50;9.57;;;6.10;;
3627;SDS011;1830;49.000;12.074;2023-04-23T00:50:18;8.10;;;6.00;;
3627;SDS011;1830;49.000;12.074;2023-04-23T00:52:45;5.70;;;5.00;;
3627;SDS011;1830;49.000;12.074;2023-04-23T00:55:12;6.30;;;5.43;;
3627;SDS011;1830;49.000;12.074;2023-04-23T00:57:39;6.47;;;5.10;;
3627;SDS011;1830;49.000;12.074;2023-04-23T01:00:07;11.10;;;6.30;;
3627;SDS011;1830;49.000;12.074;2023-04-23T01:02:39;6.60;;;5.10;;
3627;SDS011;1830;49.000;12.074;2023-04-23T01:05:08;7.53;;;5.37;;
3627;SDS011;1830;49.000;12.074;2023-04-23T01:07:35;6.73;;;5.47;;
3627;SDS011;1830;49.000;12.074;2023-04-23T01:10:03;5.93;;;5.43;;
3627;SDS011;1830;49.000;12.074;2023-04-23T01:12:31;6.70;;;6.00;;
3627;SDS011;1830;49.000;12.074;2023-04-23T01:14:58;7.37;;;5.33;;
3627;SDS011;1830;49.000;12.074;2023-04-23T01:17:25;6.87;;;5.60;;
3627;SDS011;1830;49.000;12.074;2023-04-23T01:19:54;6.30;;;5.70;;
3627;SDS011;1830;49.000;12.074;2023-04-23T01:22:23;7.83;;;6.30;;
3627;SDS011;1830;49.000;12.074;2023-04-23T01:24:49;8.03;;;6.20;;
3627;SDS011;1830;49.000;12.074;2023-04-23T01:27:17;6.03;;;5.53;;
3627;SDS011;1830;49.000;12.074;2023-04-23T01:29:45;8.70;;;6.00;;
3627;SDS011;1830;49.000;12.074;2023-04-23T01:32:12;6.30;;;5.67;;
3627;SDS011;1830;49.000;12.074;2023-04-23T01:34:40;6.20;;;5.60;;
3627;SDS011;1830;49.000;12.074;2023-04-23T01:37:11;7.27;;;6.40;;
3627;SDS011;1830;49.000;12.074;2023-04-23T01:39:40;7.90;;;5.80;;
3627;SDS011;1830;49.000;12.074;2023-04-23T01:42:07;11.83;;;6.13;;
3627;SDS011;1830;49.000;12.074;2023-04-23T01:44:33;9.23;;;6.90;;
3627;SDS011;1830;49.000;12.074;2023-04-23T01:47:00;7.27;;;6.60;;
3627;SDS011;1830;49.000;12.074;2023-04-23T01:49:27;7.27;;;6.57;;
3627;SDS011;1830;49.000;12.074;2023-04-23T01:51:54;7.80;;;6.77;;
3627;SDS011;1830;49.000;12.074;2023-04-23T01:54:21;8.03;;;6.70;;
3627;SDS011;1830;49.000;12.074;2023-04-23T01:56:49;10.17;;;6.30;;
3627;SDS011;1830;49.000;12.074;2023-04-23T01:59:19;7.07;;;6.37;;
3627;SDS011;1830;49.000;12.074;2023-04-23T02:01:47;7.40;;;6.67;;
3627;SDS011;1830;49.000;12.074;2023-04-23T02:04:14;7.07;;;6.40;;
3627;SDS011;1830;49.000;12.074;2023-04-23T02:06:43;7.60;;;6.80;;
3627;SDS011;1830;49.000;12.074;2023-04-23T02:09:12;7.30;;;6.60;;
3627;SDS011;1830;49.000;12.074;2023-04-23T02:11:39;7.13;;;6.53;;
3627;SDS011;1830;49.000;12.074;2023-04-23T02:14:07;9.60;;;6.63;;
3627;SDS011;1830;49.000;12.074;2023-04-23T02:16:35;8.43;;;6.87;;
3627;SDS011;1830;49.000;12.074;2023-04-23T02:19:02;11.13;;;7.43;;
3627;SDS011;1830;49.000;12.074;2023-04-23T02:21:30;7.30;;;6.40;;
3627;SDS011;1830;49.000;12.074;2023-04-23T02:23:56;7.13;;;6.43;;
3627;SDS011;1830;49.000;12.074;2023-04-23T02:26:23;9.00;;;7.33;;
3627;SDS011;1830;49.000;12.074;2023-04-23T02:28:51;9.57;;;6.80;;
3627;SDS011;1830;49.000;12.074;2023-04-23T02:31:19;7.47;;;5.90;;
3627;SDS011;1830;49.000;12.074;2023-04-23T02:33:46;12.47;;;7.23;;
3627;SDS011;1830;49.000;12.074;2023-04-23T02:36:13;8.17;;;6.77;;
3627;SDS011;1830;49.000;12.074;2023-04-23T02:38:40;17.83;;;8.87;;
3627;SDS011;1830;49.000;12.074;2023-04-23T02:41:08;7.53;;;6.30;;
3627;SDS011;1830;49.000;12.074;2023-04-23T02:43:36;6.70;;;6.10;;
3627;SDS011;1830;49.000;12.074;2023-04-23T02:46:03;7.70;;;6.90;;
3627;SDS011;1830;49.000;12.074;2023-04-23T02:48:35;8.40;;;7.60;;
3627;SDS011;1830;49.000;12.074;2023-04-23T02:51:02;7.20;;;6.53;;
3627;SDS011;1830;49.000;12.074;2023-04-23T02:53:30;8.30;;;7.20;;
3627;SDS011;1830;49.000;12.074;2023-04-23T02:55:57;10.30;;;7.40;;
3627;SDS011;1830;49.000;12.074;2023-04-23T02:58:24;7.73;;;6.93;;
3627;SDS011;1830;49.000;12.074;2023-04-23T03:00:50;13.90;;;8.37;;
3627;SDS011;1830;49.000;12.074;2023-04-23T03:03:17;10.47;;;7.77;;
3627;SDS011;1830;49.000;12.074;2023-04-23T03:05:46;10.07;;;7.20;;
3627;SDS011;1830;49.000;12.074;2023-04-23T03:08:13;8.77;;;7.90;;
3627;SDS011;1830;49.000;12.074;2023-04-23T03:10:40;7.43;;;6.70;;
3627;SDS011;1830;49.000;12.074;2023-04-23T03:13:07;7.60;;;6.80;;
3627;SDS011;1830;49.000;12.074;2023-04-23T03:15:34;8.90;;;7.53;;
3627;SDS011;1830;49.000;12.074;2023-04-23T03:18:00;9.10;;;7.50;;
3627;SDS011;1830;49.000;12.074;2023-04-23T03:20:28;10.23;;;7.00;;
3627;SDS011;1830;49.000;12.074;2023-04-23T03:22:56;7.77;;;7.07;;
3627;SDS011;1830;49.000;12.074;2023-04-23T03:25:23;14.43;;;7.97;;
3627;SDS011;1830;49.000;12.074;2023-04-23T03:27:50;9.90;;;8.20;;
3627;SDS011;1830;49.000;12.074;2023-04-23T03:30:17;14.27;;;8.20;;
3627;SDS011;1830;49.000;12.074;2023-04-23T03:32:44;14.13;;;7.60;;
3627;SDS011;1830;49.000;12.074;2023-04-23T03:35:11;9.37;;;7.40;;
3627;SDS011;1830;49.000;12.074;2023-04-23T03:37:38;11.00;;;8.03;;
3627;SDS011;1830;49.000;12.074;2023-04-23T03:40:06;8.10;;;7.20;;
3627;SDS011;1830;49.000;12.074;2023-04-23T03:42:34;7.60;;;6.90;;
3627;SDS011;1830;49.000;12.074;2023-04-23T03:45:01;12.47;;;6.77;;
3627;SDS011;1830;49.000;12.074;2023-04-23T03:47:28;7.73;;;7.00;;
3627;SDS011;1830;49.000;12.074;2023-04-23T03:49:55;7.80;;;5.67;;
3627;SDS011;1830;49.000;12.074;2023-04-23T03:52:22;9.00;;;6.40;;
3627;SDS011;1830;49.000;12.074;2023-04-23T03:54:49;8.50;;;4.93;;
3627;SDS011;1830;49.000;12.074;2023-04-23T03:57:17;5.00;;;4.50;;
3627;SDS011;1830;49.000;12.074;2023-04-23T03:59:44;7.93;;;4.70;;
3627;SDS011;1830;49.000;12.074;2023-04-23T04:02:10;5.47;;;4.30;;
3627;SDS011;1830;49.000;12.074;2023-04-23T04:04:37;6.80;;;4.23;;
3627;SDS011;1830;49.000;12.074;2023-04-23T04:07:04;10.70;;;4.60;;
3627;SDS011;1830;49.000;12.074;2023-04-23T04:09:31;6.23;;;4.27;;
3627;SDS011;1830;49.000;12.074;2023-04-23T04:11:58;5.07;;;4.57;;
3627;SDS011;1830;49.000;12.074;2023-04-23T04:14:27;5.37;;;4.93;;
3627;SDS011;1830;49.000;12.074;2023-04-23T04:16:53;5.57;;;4.40;;
3627;SDS011;1830;49.000;12.074;2023-04-23T04:19:20;14.73;;;4.30;;
3627;SDS011;1830;49.000;12.074;2023-04-23T04:21:48;5.13;;;4.70;;
3627;SDS011;1830;49.000;12.074;2023-04-23T04:24:15;5.67;;;4.60;;
3627;SDS011;1830;49.000;12.074;2023-04-23T04:26:42;5.20;;;4.60;;
3627;SDS011;1830;49.000;12.074;2023-04-23T04:29:17;5.83;;;4.93;;
3627;SDS011;1830;49.000;12.074;2023-04-23T04:31:46;4.47;;;4.03;;
3627;SDS011;1830;49.000;12.074;2023-04-23T04:34:13;7.03;;;5.03;;
3627;SDS011;1830;49.000;12.074;2023-04-23T04:36:42;6.50;;;4.70;;
3627;SDS011;1830;49.000;12.074;2023-04-23T04:39:08;5.13;;;4.60;;
3627;SDS011;1830;49.000;12.074;2023-04-23T04:41:37;4.93;;;3.83;;
3627;SDS011;1830;49.000;12.074;2023-04-23T04:44:04;9.90;;;4.10;;
3627;SDS011;1830;49.000;12.074;2023-04-23T04:46:32;10.23;;;4.20;;
3627;SDS011;1830;49.000;12.074;2023-04-23T04:49:00;6.20;;;3.57;;
3627;SDS011;1830;49.000;12.074;2023-04-23T04:51:27;5.33;;;3.90;;
3627;SDS011;1830;49.000;12.074;2023-04-23T04:53:53;5.17;;;3.63;;
3627;SDS011;1830;49.000;12.074;2023-04-23T04:56:20;9.77;;;3.87;;
3627;SDS011;1830;49.000;12.074;2023-04-23T04:58:48;4.67;;;3.57;;
3627;SDS011;1830;49.000;12.074;2023-04-23T05:01:14;5.90;;;3.93;;
3627;SDS011;1830;49.000;12.074;2023-04-23T05:03:42;6.07;;;4.40;;
3627;SDS011;1830;49.000;12.074;2023-04-23T05:06:10;12.70;;;5.00;;
3627;SDS011;1830;49.000;12.074;2023-04-23T05:08:37;6.90;;;3.83;;
3627;SDS011;1830;49.000;12.074;2023-04-23T05:11:04;5.30;;;3.60;;
3627;SDS011;1830;49.000;12.074;2023-04-23T05:13:31;5.47;;;3.67;;
3627;SDS011;1830;49.000;12.074;2023-04-23T05:15:57;4.43;;;4.00;;
3627;SDS011;1830;49.000;12.074;2023-04-23T05:18:24;7.47;;;3.97;;
3627;SDS011;1830;49.000;12.074;2023-04-23T05:20:51;7.00;;;4.10;;
3627;SDS011;1830;49.000;12.074;2023-04-23T05:23:19;7.47;;;4.30;;
3627;SDS011;1830;49.000;12.074;2023-04-23T05:25:46;5.23;;;3.50;;
3627;SDS011;1830;49.000;12.074;2023-04-23T05:28:14;3.93;;;3.50;;
3627;SDS011;1830;49.000;12.074;2023-04-23T05:30:40;7.10;;;3.77;;
3627;SDS011;1830;49.000;12.074;2023-04-23T05:33:07;5.90;;;3.87;;
3627;SDS011;1830;49.000;12.074;2023-04-23T05:35:34;6.47;;;4.20;;
3627;SDS011;1830;49.000;12.074;2023-04-23T05:38:01;4.87;;;3.17;;
3627;SDS011;1830;49.000;12.074;2023-04-23T05:40:30;8.53;;;4.37;;
3627;SDS011;1830;49.000;12.074;2023-04-23T05:42:57;6.07;;;3.70;;
3627;SDS011;1830;49.000;12.074;2023-04-23T05:45:24;11.33;;;4.40;;
3627;SDS011;1830;49.000;12.074;2023-04-23T05:47:51;4.33;;;3.93;;
3627;SDS011;1830;49.000;12.074;2023-04-23T05:50:18;7.73;;;4.13;;
3627;SDS011;1830;49.000;12.074;2023-04-23T05:52:45;8.23;;;4.07;;
3627;SDS011;1830;49.000;12.074;2023-04-23T05:55:12;4.83;;;3.20;;
3627;SDS011;1830;49.000;12.074;2023-04-23T05:57:41;6.53;;;4.03;;
3627;SDS011;1830;49.000;12.074;2023-04-23T06:00:08;6.03;;;4.10;;
3627;SDS011;1830;49.000;12.074;2023-04-23T06:02:36;4.27;;;3.87;;
3627;SDS011;1830;49.000;12.074;2023-04-23T06:05:03;8.73;;;3.90;;
3627;SDS011;1830;49.000;12.074;2023-04-23T06:07:30;6.83;;;4.33;;
3627;SDS011;1830;49.000;12.074;2023-04-23T06:09:57;8.10;;;3.70;;
3627;SDS011;1830;49.000;12.074;2023-04-23T06:12:24;4.40;;;3.60;;
3627;SDS011;1830;49.000;12.074;2023-04-23T06:14:52;4.80;;;3.30;;
3627;SDS011;1830;49.000;12.074;2023-04-23T06:17:19;5.87;;;3.70;;
3627;SDS011;1830;49.000;12.074;2023-04-23T06:19:46;6.33;;;3.43;;
3627;SDS011;1830;49.000;12.074;2023-04-23T06:22:13;3.67;;;3.33;;
3627;SDS011;1830;49.000;12.074;2023-04-23T06:24:39;4.40;;;3.27;;
3627;SDS011;1830;49.000;12.074;2023-04-23T06:27:06;6.83;;;3.50;;
3627;SDS011;1830;49.000;12.074;2023-04-23T06:29:33;7.80;;;3.00;;
3627;SDS011;1830;49.000;12.074;2023-04-23T06:32:01;6.23;;;3.50;;
3627;SDS011;1830;49.000;12.074;2023-04-23T06:34:29;4.77;;;2.80;;
3627;SDS011;1830;49.000;12.074;2023-04-23T06:36:55;4.70;;;2.77;;
3627;SDS011;1830;49.000;12.074;2023-04-23T06:39:23;2.43;;;2.23;;
3627;SDS011;1830;49.000;12.074;2023-04-23T06:41:50;5.03;;;2.63;;
3627;SDS011;1830;49.000;12.074;2023-04-23T06:44:23;7.40;;;2.80;;
3627;SDS011;1830;49.000;12.074;2023-04-23T06:46:51;3.97;;;2.67;;
3627;SDS011;1830;49.000;12.074;2023-04-23T06:49:19;2.83;;;2.37;;
3627;SDS011;1830;49.000;12.074;2023-04-23T06:51:45;2.80;;;2.60;;
3627;SDS011;1830;49.000;12.074;2023-04-23T06:54:12;4.73;;;2.50;;
3627;SDS011;1830;49.000;12.074;2023-04-23T06:56:39;3.17;;;2.90;;
3627;SDS011;1830;49.000;12.074;2023-04-23T06:59:06;2.30;;;2.10;;
3627;SDS011;1830;49.000;12.074;2023-04-23T07:01:34;3.50;;;2.70;;
3627;SDS011;1830;49.000;12.074;2023-04-23T07:04:01;5.80;;;2.57;;
3627;SDS011;1830;49.000;12.074;2023-04-23T07:06:29;4.90;;;2.70;;
3627;SDS011;1830;49.000;12.074;2023-04-23T07:08:58;2.40;;;2.30;;
3627;SDS011;1830;49.000;12.074;2023-04-23T07:11:24;3.77;;;2.40;;
3627;SDS011;1830;49.000;12.074;2023-04-23T07:13:51;3.53;;;2.63;;
3627;SDS011;1830;49.000;12.074;2023-04-23T07:16:18;7.20;;;2.83;;
3627;SDS011;1830;49.000;12.074;2023-04-23T07:18:46;2.90;;;2.30;;
3627;SDS011;1830;49.000;12.074;2023-04-23T07:21:14;2.50;;;2.30;;
3627;SDS011;1830;49.000;12.074;2023-04-23T07:23:42;2.73;;;2.03;;
3627;SDS011;1830;49.000;12.074;2023-04-23T07:26:09;4.90;;;2.20;;
3627;SDS011;1830;49.000;12.074;2023-04-23T07:28:35;3.90;;;2.40;;
3627;SDS011;1830;49.000;12.074;2023-04-23T07:31:02;2.50;;;2.30;;
3627;SDS011;1830;49.000;12.074;2023-04-23T07:33:29;5.87;;;2.57;;
3627;SDS011;1830;49.000;12.074;2023-04-23T07:35:56;8.87;;;6.77;;
3627;SDS011;1830;49.000;12.074;2023-04-23T07:38:23;4.97;;;3.27;;
3627;SDS011;1830;49.000;12.074;2023-04-23T07:40:51;4.77;;;3.00;;
3627;SDS011;1830;49.000;12.074;2023-04-23T07:43:17;2.70;;;2.50;;
3627;SDS011;1830;49.000;12.074;2023-04-23T07:45:45;2.60;;;2.47;;
3627;SDS011;1830;49.000;12.074;2023-04-23T07:48:12;2.90;;;2.27;;
3627;SDS011;1830;49.000;12.074;2023-04-23T07:50:38;2.63;;;2.43;;
3627;SDS011;1830;49.000;12.074;2023-04-23T07:53:05;3.17;;;2.80;;
3627;SDS011;1830;49.000;12.074;2023-04-23T07:55:32;5.70;;;3.30;;
3627;SDS011;1830;49.000;12.074;2023-04-23T07:58:00;6.07;;;2.53;;
3627;SDS011;1830;49.000;12.074;2023-04-23T08:00:27;2.07;;;1.97;;
3627;SDS011;1830;49.000;12.074;2023-04-23T08:02:54;3.60;;;2.60;;
3627;SDS011;1830;49.000;12.074;2023-04-23T08:05:21;3.33;;;2.80;;
3627;SDS011;1830;49.000;12.074;2023-04-23T08:07:47;3.70;;;2.73;;
3627;SDS011;1830;49.000;12.074;2023-04-23T08:10:14;4.47;;;3.33;;
3627;SDS011;1830;49.000;12.074;2023-04-23T08:12:41;2.70;;;2.60;;
3627;SDS011;1830;49.000;12.074;2023-04-23T08:15:10;3.90;;;2.20;;
3627;SDS011;1830;49.000;12.074;2023-04-23T08:17:37;2.90;;;2.57;;
3627;SDS011;1830;49.000;12.074;2023-04-23T08:20:04;3.40;;;2.30;;
3627;SDS011;1830;49.000;12.074;2023-04-23T08:22:32;4.27;;;3.33;;
3627;SDS011;1830;49.000;12.074;2023-04-23T08:24:59;7.67;;;6.03;;
3627;SDS011;1830;49.000;12.074;2023-04-23T08:27:25;3.77;;;2.60;;
3627;SDS011;1830;49.000;12.074;2023-04-23T08:29:52;6.20;;;4.53;;
3627;SDS011;1830;49.000;12.074;2023-04-23T08:32:20;3.53;;;3.23;;
3627;SDS011;1830;49.000;12.074;2023-04-23T08:34:47;8.70;;;5.03;;
3627;SDS011;1830;49.000;12.074;2023-04-23T08:37:14;5.83;;;3.90;;
3627;SDS011;1830;49.000;12.074;2023-04-23T08:39:41;5.20;;;3.43;;
3627;SDS011;1830;49.000;12.074;2023-04-23T08:42:09;3.77;;;2.93;;
3627;SDS011;1830;49.000;12.074;2023-04-23T08:44:40;6.73;;;4.37;;
3627;SDS011;1830;49.000;12.074;2023-04-23T08:47:08;3.50;;;3.20;;
3627;SDS011;1830;49.000;12.074;2023-04-23T08:49:40;5.43;;;3.90;;
3627;SDS011;1830;49.000;12.074;2023-04-23T08:52:14;12.80;;;4.07;;
3627;SDS011;1830;49.000;12.074;2023-04-23T08:54:44;5.00;;;3.60;;
3627;SDS011;1830;49.000;12.074;2023-04-23T08:57:12;4.90;;;3.40;;
3627;SDS011;1830;49.000;12.074;2023-04-23T08:59:41;5.20;;;3.70;;
3627;SDS011;1830;49.000;12.074;2023-04-23T09:02:08;4.37;;;3.50;;
3627;SDS011;1830;49.000;12.074;2023-04-23T09:04:36;6.40;;;3.90;;
3627;SDS011;1830;49.000;12.074;2023-04-23T09:07:04;6.00;;;3.73;;
3627;SDS011;1830;49.000;12.074;2023-04-23T09:09:35;4.33;;;3.90;;
3627;SDS011;1830;49.000;12.074;2023-04-23T09:12:03;3.50;;;3.13;;
3627;SDS011;1830;49.000;12.074;2023-04-23T09:14:31;4.00;;;3.43;;
3627;SDS011;1830;49.000;12.074;2023-04-23T09:16:57;3.83;;;3.30;;
3627;SDS011;1830;49.000;12.074;2023-04-23T09:19:25;8.50;;;3.70;;
3627;SDS011;1830;49.000;12.074;2023-04-23T09:21:55;4.60;;;3.20;;
3627;SDS011;1830;49.000;12.074;2023-04-23T09:24:22;3.80;;;3.50;;
3627;SDS011;1830;49.000;12.074;2023-04-23T09:26:51;3.73;;;3.43;;
3627;SDS011;1830;49.000;12.074;2023-04-23T09:29:20;4.03;;;3.63;;
3627;SDS011;1830;49.000;12.074;2023-04-23T09:31:48;3.60;;;3.23;;
3627;SDS011;1830;49.000;12.074;2023-04-23T09:34:15;4.03;;;3.53;;
3627;SDS011;1830;49.000;12.074;2023-04-23T09:36:43;5.17;;;3.90;;
3627;SDS011;1830;49.000;12.074;2023-04-23T09:39:12;3.87;;;3.53;;
3627;SDS011;1830;49.000;12.074;2023-04-23T09:41:39;3.43;;;3.17;;
3627;SDS011;1830;49.000;12.074;2023-04-23T09:44:06;7.10;;;4.73;;
3627;SDS011;1830;49.000;12.074;2023-04-23T09:46:34;4.30;;;3.93;;
3627;SDS011;1830;49.000;12.074;2023-04-23T09:49:02;5.40;;;4.27;;
3627;SDS011;1830;49.000;12.074;2023-04-23T09:51:31;5.07;;;3.67;;
3627;SDS011;1830;49.000;12.074;2023-04-23T09:54:00;7.20;;;4.40;;
3627;SDS011;1830;49.000;12.074;2023-04-23T09:56:29;6.33;;;4.30;;
3627;SDS011;1830;49.000;12.074;2023-04-23T09:58:57;4.37;;;3.97;;
3627;SDS011;1830;49.000;12.074;2023-04-23T10:01:27;7.60;;;4.30;;
3627;SDS011;1830;49.000;12.074;2023-04-23T10:03:54;3.93;;;3.63;;
3627;SDS011;1830;49.000;12.074;2023-04-23T10:06:26;7.67;;;4.23;;
3627;SDS011;1830;49.000;12.074;2023-04-23T10:08:55;5.67;;;4.57;;
3627;SDS011;1830;49.000;12.074;2023-04-23T10:11:23;4.67;;;4.07;;
3627;SDS011;1830;49.000;12.074;2023-04-23T10:13:52;5.07;;;3.83;;
3627;SDS011;1830;49.000;12.074;2023-04-23T10:16:20;4.13;;;3.63;;
3627;SDS011;1830;49.000;12.074;2023-04-23T10:18:48;4.60;;;3.83;;
3627;SDS011;1830;49.000;12.074;2023-04-23T10:21:16;4.70;;;4.30;;
3627;SDS011;1830;49.000;12.074;2023-04-23T10:23:45;4.40;;;4.10;;
3627;SDS011;1830;49.000;12.074;2023-04-23T10:26:15;4.90;;;4.10;;
3627;SDS011;1830;49.000;12.074;2023-04-23T10:28:43;7.20;;;5.17;;
3627;SDS011;1830;49.000;12.074;2023-04-23T10:31:14;5.57;;;5.07;;
3627;SDS011;1830;49.000;12.074;2023-04-23T10:33:43;6.90;;;5.47;;
3627;SDS011;1830;49.000;12.074;2023-04-23T10:36:10;8.13;;;6.30;;
3627;SDS011;1830;49.000;12.074;2023-04-23T10:38:38;6.83;;;6.23;;
3627;SDS011;1830;49.000;12.074;2023-04-23T10:41:05;7.47;;;6.77;;
3627;SDS011;1830;49.000;12.074;2023-04-23T10:43:33;7.97;;;7.17;;
3627;SDS011;1830;49.000;12.074;2023-04-23T10:46:01;7.97;;;6.80;;
3627;SDS011;1830;49.000;12.074;2023-04-23T10:48:29;9.10;;;8.20;;
3627;SDS011;1830;49.000;12.074;2023-04-23T10:51:16;9.00;;;8.20;;
3627;SDS011;1830;49.000;12.074;2023-04-23T10:53:43;10.00;;;9.10;;
3627;SDS011;1830;49.000;12.074;2023-04-23T10:56:11;9.17;;;8.27;;
3627;SDS011;1830;49.000;12.074;2023-04-23T11:01:23;8.80;;;8.10;;
3627;SDS011;1830;49.000;12.074;2023-04-23T11:03:52;9.43;;;7.13;;
3627;SDS011;1830;49.000;12.074;2023-04-23T11:06:49;8.00;;;7.30;;
3627;SDS011;1830;49.000;12.074;2023-04-23T11:09:39;7.80;;;7.00;;
3627;SDS011;1830;49.000;12.074;2023-04-23T11:12:09;8.70;;;7.90;;
3627;SDS011;1830;49.000;12.074;2023-04-23T11:14:45;8.40;;;7.70;;
3627;SDS011;1830;49.000;12.074;2023-04-23T11:17:14;8.30;;;7.50;;
3627;SDS011;1830;49.000;12.074;2023-04-23T11:22:34;9.47;;;8.40;;
3627;SDS011;1830;49.000;12.074;2023-04-23T11:25:02;8.90;;;8.20;;
3627;SDS011;1830;49.000;12.074;2023-04-23T11:27:29;8.97;;;8.17;;
3627;SDS011;1830;49.000;12.074;2023-04-23T11:29:56;9.30;;;8.40;;
3627;SDS011;1830;49.000;12.074;2023-04-23T11:32:23;8.80;;;7.90;;
3627;SDS011;1830;49.000;12.074;2023-04-23T11:34:54;8.43;;;7.60;;
3627;SDS011;1830;49.000;12.074;2023-04-23T11:37:23;8.40;;;7.60;;
3627;SDS011;1830;49.000;12.074;2023-04-23T11:39:50;8.70;;;8.00;;
3627;SDS011;1830;49.000;12.074;2023-04-23T11:42:16;12.90;;;8.00;;
3627;SDS011;1830;49.000;12.074;2023-04-23T11:44:45;8.80;;;7.90;;
3627;SDS011;1830;49.000;12.074;2023-04-23T11:47:13;8.50;;;7.70;;
3627;SDS011;1830;49.000;12.074;2023-04-23T11:49:41;8.60;;;7.83;;
3627;SDS011;1830;49.000;12.074;2023-04-23T11:52:10;8.20;;;7.40;;
3627;SDS011;1830;49.000;12.074;2023-04-23T11:54:39;7.53;;;6.90;;
3627;SDS011;1830;49.000;12.074;2023-04-23T11:57:06;8.37;;;7.00;;
3627;SDS011;1830;49.000;12.074;2023-04-23T11:59:34;7.43;;;6.73;;
3627;SDS011;1830;49.000;12.074;2023-04-23T12:02:00;7.10;;;6.50;;
3627;SDS011;1830;49.000;12.074;2023-04-23T12:04:27;7.70;;;7.00;;
3627;SDS011;1830;49.000;12.074;2023-04-23T12:06:56;6.90;;;6.40;;
3627;SDS011;1830;49.000;12.074;2023-04-23T12:09:26;7.00;;;6.17;;
3627;SDS011;1830;49.000;12.074;2023-04-23T12:11:54;8.50;;;6.70;;
3627;SDS011;1830;49.000;12.074;2023-04-23T12:14:24;6.00;;;5.60;;
3627;SDS011;1830;49.000;12.074;2023-04-23T12:16:55;11.43;;;6.30;;
3627;SDS011;1830;49.000;12.074;2023-04-23T12:19:25;7.63;;;6.40;;
3627;SDS011;1830;49.000;12.074;2023-04-23T12:21:53;6.80;;;6.23;;
3627;SDS011;1830;49.000;12.074;2023-04-23T12:24:21;6.93;;;6.33;;
3627;SDS011;1830;49.000;12.074;2023-04-23T12:26:50;7.40;;;6.03;;
3627;SDS011;1830;49.000;12.074;2023-04-23T12:29:18;14.60;;;6.40;;
3627;SDS011;1830;49.000;12.074;2023-04-23T12:31:46;6.60;;;6.10;;
3627;SDS011;1830;49.000;12.074;2023-04-23T12:34:13;6.73;;;6.13;;
3627;SDS011;1830;49.000;12.074;2023-04-23T12:36:43;6.70;;;6.10;;
3627;SDS011;1830;49.000;12.074;2023-04-23T12:39:17;5.47;;;5.10;;
3627;SDS011;1830;49.000;12.074;2023-04-23T12:41:45;6.00;;;5.50;;
3627;SDS011;1830;49.000;12.074;2023-04-23T12:44:13;6.07;;;5.57;;
3627;SDS011;1830;49.000;12.074;2023-04-23T12:46:40;8.03;;;4.10;;
3627;SDS011;1830;49.000;12.074;2023-04-23T12:49:07;3.13;;;2.93;;
3627;SDS011;1830;49.000;12.074;2023-04-23T12:51:34;3.43;;;3.23;;
3627;SDS011;1830;49.000;12.074;2023-04-23T12:54:00;3.87;;;3.50;;
3627;SDS011;1830;49.000;12.074;2023-04-23T12:56:28;3.70;;;3.40;;
3627;SDS011;1830;49.000;12.074;2023-04-23T12:58:55;3.20;;;2.90;;
3627;SDS011;1830;49.000;12.074;2023-04-23T13:01:33;3.17;;;2.87;;
3627;SDS011;1830;49.000;12.074;2023-04-23T13:04:00;2.73;;;2.53;;
3627;SDS011;1830;49.000;12.074;2023-04-23T13:06:26;2.80;;;2.70;;
3627;SDS011;1830;49.000;12.074;2023-04-23T13:08:54;2.33;;;2.23;;
3627;SDS011;1830;49.000;12.074;2023-04-23T13:11:25;5.60;;;2.63;;
3627;SDS011;1830;49.000;12.074;2023-04-23T13:13:51;2.97;;;2.77;;
3627;SDS011;1830;49.000;12.074;2023-04-23T13:16:24;7.13;;;2.77;;
3627;SDS011;1830;49.000;12.074;2023-04-23T13:18:53;2.80;;;2.60;;
3627;SDS011;1830;49.000;12.074;2023-04-23T13:21:20;2.93;;;2.50;;
3627;SDS011;1830;49.000;12.074;2023-04-23T13:23:47;2.40;;;2.20;;
3627;SDS011;1830;49.000;12.074;2023-04-23T13:26:15;4.23;;;1.80;;
3627;SDS011;1830;49.000;12.074;2023-04-23T13:28:42;3.30;;;2.07;;
3627;SDS011;1830;49.000;12.074;2023-04-23T13:31:09;2.37;;;2.27;;
3627;SDS011;1830;49.000;12.074;2023-04-23T13:33:37;2.40;;;2.23;;
3627;SDS011;1830;49.000;12.074;2023-04-23T13:36:10;5.40;;;2.30;;
3627;SDS011;1830;49.000;12.074;2023-04-23T13:38:37;2.20;;;1.87;;
3627;SDS011;1830;49.000;12.074;2023-04-23T13:41:04;2.63;;;1.97;;
3627;SDS011;1830;49.000;12.074;2023-04-23T13:43:33;2.00;;;1.90;;
3627;SDS011;1830;49.000;12.074;2023-04-23T13:46:00;1.80;;;1.70;;
3627;SDS011;1830;49.000;12.074;2023-04-23T13:48:27;3.07;;;2.10;;
3627;SDS011;1830;49.000;12.074;2023-04-23T13:50:55;1.97;;;1.87;;
3627;SDS011;1830;49.000;12.074;2023-04-23T13:53:24;2.10;;;2.00;;
3627;SDS011;1830;49.000;12.074;2023-04-23T13:55:52;1.80;;;1.73;;
3627;SDS011;1830;49.000;12.074;2023-04-23T13:58:19;1.70;;;1.60;;
3627;SDS011;1830;49.000;12.074;2023-04-23T14:00:47;2.20;;;2.00;;
3627;SDS011;1830;49.000;12.074;2023-04-23T14:03:14;4.00;;;1.93;;
3627;SDS011;1830;49.000;12.074;2023-04-23T14:05:40;7.30;;;2.07;;
3627;SDS011;1830;49.000;12.074;2023-04-23T14:08:07;1.83;;;1.73;;
3627;SDS011;1830;49.000;12.074;2023-04-23T14:10:36;1.87;;;1.73;;
3627;SDS011;1830;49.000;12.074;2023-04-23T14:13:03;2.40;;;2.20;;
3627;SDS011;1830;49.000;12.074;2023-04-23T14:15:30;4.47;;;2.30;;
3627;SDS011;1830;49.000;12.074;2023-04-23T14:17:57;2.37;;;2.07;;
3627;SDS011;1830;49.000;12.074;2023-04-23T14:20:24;3.20;;;2.00;;
3627;SDS011;1830;49.000;12.074;2023-04-23T14:22:54;2.27;;;2.10;;
3627;SDS011;1830;49.000;12.074;2023-04-23T14:25:23;2.07;;;1.97;;
3627;SDS011;1830;49.000;12.074;2023-04-23T14:27:52;2.87;;;2.30;;
3627;SDS011;1830;49.000;12.074;2023-04-23T14:30:22;2.63;;;2.43;;
3627;SDS011;1830;49.000;12.074;2023-04-23T14:32:51;2.47;;;2.37;;
3627;SDS011;1830;49.000;12.074;2023-04-23T14:35:20;1.97;;;1.87;;
3627;SDS011;1830;49.000;12.074;2023-04-23T14:37:47;8.07;;;2.17;;
3627;SDS011;1830;49.000;12.074;2023-04-23T15:07:19;4.53;;;2.90;;
3627;SDS011;1830;49.000;12.074;2023-04-23T15:09:45;3.43;;;3.13;;
3627;SDS011;1830;49.000;12.074;2023-04-23T15:12:31;4.50;;;2.70;;
3627;SDS011;1830;49.000;12.074;2023-04-23T15:15:13;3.83;;;3.43;;
3627;SDS011;1830;49.000;12.074;2023-04-23T15:17:45;5.17;;;3.07;;
3627;SDS011;1830;49.000;12.074;2023-04-23T15:20:12;3.13;;;2.93;;
3627;SDS011;1830;49.000;12.074;2023-04-23T15:22:41;3.03;;;2.73;;
3627;SDS011;1830;49.000;12.074;2023-04-23T15:25:08;3.70;;;3.40;;
3627;SDS011;1830;49.000;12.074;2023-04-23T15:27:35;2.60;;;2.40;;
3627;SDS011;1830;49.000;12.074;2023-04-23T15:30:03;3.40;;;3.20;;
3627;SDS011;1830;49.000;12.074;2023-04-23T15:32:32;3.57;;;3.23;;
3627;SDS011;1830;49.000;12.074;2023-04-23T15:34:58;2.90;;;2.70;;
3627;SDS011;1830;49.000;12.074;2023-04-23T15:37:25;3.10;;;2.90;;